sensor_id;sensor_type;location;lat;lon;timestamp;temperature;humidity
70269;DHT22;58514;48.398;-4.274;2023-02-12T00:00:59;8.00;87.20
70269;DHT22;58514;48.398;-4.274;2023-02-12T00:03:25;8.00;88.10
70269;DHT22;58514;48.398;-4.274;2023-02-12T00:05:51;8.00;87.90
70269;DHT22;58514;48.398;-4.274;2023-02-12T00:08:16;8.00;87.80
70269;DHT22;58514;48.398;-4.274;2023-02-12T00:10:43;8.00;87.50
70269;DHT22;58514;48.398;-4.274;2023-02-12T00:13:09;8.00;87.80
70269;DHT22;58514;48.398;-4.274;2023-02-12T00:15:39;8.00;88.00
70269;DHT22;58514;48.398;-4.274;2023-02-12T00:18:05;8.00;88.00
70269;DHT22;58514;48.398;-4.274;2023-02-12T00:20:30;8.00;87.60
70269;DHT22;58514;48.398;-4.274;2023-02-12T00:22:56;8.00;88.20
70269;DHT22;58514;48.398;-4.274;2023-02-12T00:25:21;8.00;88.00
70269;DHT22;58514;48.398;-4.274;2023-02-12T00:27:47;8.00;87.80
70269;DHT22;58514;48.398;-4.274;2023-02-12T00:30:12;8.00;88.50
70269;DHT22;58514;48.398;-4.274;2023-02-12T00:32:38;8.00;88.30
70269;DHT22;58514;48.398;-4.274;2023-02-12T00:35:05;8.00;88.20
70269;DHT22;58514;48.398;-4.274;2023-02-12T00:37:30;8.00;88.10
70269;DHT22;58514;48.398;-4.274;2023-02-12T00:39:56;8.00;88.40
70269;DHT22;58514;48.398;-4.274;2023-02-12T00:42:21;8.00;88.20
70269;DHT22;58514;48.398;-4.274;2023-02-12T00:44:47;8.00;88.10
70269;DHT22;58514;48.398;-4.274;2023-02-12T00:47:12;8.00;88.20
70269;DHT22;58514;48.398;-4.274;2023-02-12T00:49:38;8.00;88.40
70269;DHT22;58514;48.398;-4.274;2023-02-12T00:52:04;7.90;88.10
70269;DHT22;58514;48.398;-4.274;2023-02-12T00:54:30;7.90;88.30
70269;DHT22;58514;48.398;-4.274;2023-02-12T00:56:56;7.90;88.20
70269;DHT22;58514;48.398;-4.274;2023-02-12T00:59:22;7.90;88.00
70269;DHT22;58514;48.398;-4.274;2023-02-12T01:01:48;7.90;88.00
70269;DHT22;58514;48.398;-4.274;2023-02-12T01:04:14;7.90;88.60
70269;DHT22;58514;48.398;-4.274;2023-02-12T01:06:39;7.90;88.10
70269;DHT22;58514;48.398;-4.274;2023-02-12T01:09:05;7.90;88.20
70269;DHT22;58514;48.398;-4.274;2023-02-12T01:11:30;7.90;88.00
70269;DHT22;58514;48.398;-4.274;2023-02-12T01:13:56;7.90;88.50
70269;DHT22;58514;48.398;-4.274;2023-02-12T01:16:22;7.90;88.90
70269;DHT22;58514;48.398;-4.274;2023-02-12T01:18:48;7.90;88.40
70269;DHT22;58514;48.398;-4.274;2023-02-12T01:21:15;7.90;89.10
70269;DHT22;58514;48.398;-4.274;2023-02-12T01:23:41;7.90;88.40
70269;DHT22;58514;48.398;-4.274;2023-02-12T01:26:06;7.90;88.40
70269;DHT22;58514;48.398;-4.274;2023-02-12T01:28:35;7.90;88.80
70269;DHT22;58514;48.398;-4.274;2023-02-12T01:31:01;7.90;88.40
70269;DHT22;58514;48.398;-4.274;2023-02-12T01:33:29;7.80;88.30
70269;DHT22;58514;48.398;-4.274;2023-02-12T01:35:55;7.80;88.40
70269;DHT22;58514;48.398;-4.274;2023-02-12T01:38:20;7.80;88.70
70269;DHT22;58514;48.398;-4.274;2023-02-12T01:40:46;7.80;88.60
70269;DHT22;58514;48.398;-4.274;2023-02-12T01:43:11;7.80;89.30
70269;DHT22;58514;48.398;-4.274;2023-02-12T01:45:48;7.80;89.40
70269;DHT22;58514;48.398;-4.274;2023-02-12T01:48:14;7.80;89.60
70269;DHT22;58514;48.398;-4.274;2023-02-12T01:50:42;7.80;89.30
70269;DHT22;58514;48.398;-4.274;2023-02-12T01:53:08;7.80;89.10
70269;DHT22;58514;48.398;-4.274;2023-02-12T01:55:33;7.80;88.90
70269;DHT22;58514;48.398;-4.274;2023-02-12T01:57:59;7.80;89.40
70269;DHT22;58514;48.398;-4.274;2023-02-12T02:00:25;7.80;89.40
70269;DHT22;58514;48.398;-4.274;2023-02-12T02:02:54;7.80;89.20
70269;DHT22;58514;48.398;-4.274;2023-02-12T02:05:32;7.80;89.20
70269;DHT22;58514;48.398;-4.274;2023-02-12T02:07:59;7.80;89.30
70269;DHT22;58514;48.398;-4.274;2023-02-12T02:10:25;7.90;89.20
70269;DHT22;58514;48.398;-4.274;2023-02-12T02:12:50;7.80;89.20
70269;DHT22;58514;48.398;-4.274;2023-02-12T02:15:35;7.80;89.30
70269;DHT22;58514;48.398;-4.274;2023-02-12T02:23:29;7.80;89.80
70269;DHT22;58514;48.398;-4.274;2023-02-12T02:26:09;7.90;89.80
70269;DHT22;58514;48.398;-4.274;2023-02-12T02:33:58;7.80;89.40
70269;DHT22;58514;48.398;-4.274;2023-02-12T02:38:55;7.80;89.40
70269;DHT22;58514;48.398;-4.274;2023-02-12T02:43:53;7.80;89.40
70269;DHT22;58514;48.398;-4.274;2023-02-12T02:46:22;7.80;89.90
70269;DHT22;58514;48.398;-4.274;2023-02-12T02:48:49;7.80;89.60
70269;DHT22;58514;48.398;-4.274;2023-02-12T02:51:24;7.80;89.60
70269;DHT22;58514;48.398;-4.274;2023-02-12T02:53:53;7.70;89.50
70269;DHT22;58514;48.398;-4.274;2023-02-12T02:56:20;7.70;89.50
70269;DHT22;58514;48.398;-4.274;2023-02-12T02:58:49;7.70;89.40
70269;DHT22;58514;48.398;-4.274;2023-02-12T03:01:27;7.60;89.20
70269;DHT22;58514;48.398;-4.274;2023-02-12T03:06:29;7.50;89.00
70269;DHT22;58514;48.398;-4.274;2023-02-12T03:08:59;7.50;89.10
70269;DHT22;58514;48.398;-4.274;2023-02-12T03:11:25;7.40;89.20
70269;DHT22;58514;48.398;-4.274;2023-02-12T03:14:00;7.40;88.90
70269;DHT22;58514;48.398;-4.274;2023-02-12T03:16:28;7.30;89.00
70269;DHT22;58514;48.398;-4.274;2023-02-12T03:19:38;7.20;89.00
70269;DHT22;58514;48.398;-4.274;2023-02-12T03:22:01;7.20;89.10
70269;DHT22;58514;48.398;-4.274;2023-02-12T03:26:58;7.10;89.10
70269;DHT22;58514;48.398;-4.274;2023-02-12T03:29:27;7.00;89.10
70269;DHT22;58514;48.398;-4.274;2023-02-12T03:31:55;7.00;89.10
70269;DHT22;58514;48.398;-4.274;2023-02-12T03:34:24;6.90;89.20
70269;DHT22;58514;48.398;-4.274;2023-02-12T03:42:00;6.80;89.70
70269;DHT22;58514;48.398;-4.274;2023-02-12T03:52:10;6.80;90.10
70269;DHT22;58514;48.398;-4.274;2023-02-12T03:54:36;6.80;90.10
70269;DHT22;58514;48.398;-4.274;2023-02-12T03:57:02;6.80;89.80
70269;DHT22;58514;48.398;-4.274;2023-02-12T03:59:30;6.70;90.00
70269;DHT22;58514;48.398;-4.274;2023-02-12T04:01:57;6.70;89.90
70269;DHT22;58514;48.398;-4.274;2023-02-12T04:04:23;6.70;89.90
70269;DHT22;58514;48.398;-4.274;2023-02-12T04:06:48;6.70;90.00
70269;DHT22;58514;48.398;-4.274;2023-02-12T04:09:14;6.70;90.10
70269;DHT22;58514;48.398;-4.274;2023-02-12T04:14:28;6.60;90.10
70269;DHT22;58514;48.398;-4.274;2023-02-12T04:19:33;6.70;90.10
70269;DHT22;58514;48.398;-4.274;2023-02-12T04:24:35;6.70;90.00
70269;DHT22;58514;48.398;-4.274;2023-02-12T04:27:08;6.70;90.30
70269;DHT22;58514;48.398;-4.274;2023-02-12T04:32:05;6.70;90.20
70269;DHT22;58514;48.398;-4.274;2023-02-12T04:34:44;6.70;90.00
70269;DHT22;58514;48.398;-4.274;2023-02-12T04:39:38;6.70;90.00
70269;DHT22;58514;48.398;-4.274;2023-02-12T04:42:05;6.70;90.20
70269;DHT22;58514;48.398;-4.274;2023-02-12T04:44:32;6.70;90.20
70269;DHT22;58514;48.398;-4.274;2023-02-12T04:46:58;6.80;90.20
70269;DHT22;58514;48.398;-4.274;2023-02-12T04:49:24;6.80;90.30
70269;DHT22;58514;48.398;-4.274;2023-02-12T04:51:50;6.80;90.10
70269;DHT22;58514;48.398;-4.274;2023-02-12T04:54:17;6.80;90.10
70269;DHT22;58514;48.398;-4.274;2023-02-12T04:56:43;6.80;90.30
70269;DHT22;58514;48.398;-4.274;2023-02-12T04:59:08;6.80;90.30
70269;DHT22;58514;48.398;-4.274;2023-02-12T05:01:34;6.80;90.10
70269;DHT22;58514;48.398;-4.274;2023-02-12T05:04:00;6.80;90.10
70269;DHT22;58514;48.398;-4.274;2023-02-12T05:06:26;6.80;90.00
70269;DHT22;58514;48.398;-4.274;2023-02-12T05:08:52;6.80;90.10
70269;DHT22;58514;48.398;-4.274;2023-02-12T05:11:17;6.80;90.30
70269;DHT22;58514;48.398;-4.274;2023-02-12T05:13:44;6.70;90.10
70269;DHT22;58514;48.398;-4.274;2023-02-12T05:16:12;6.70;90.00
70269;DHT22;58514;48.398;-4.274;2023-02-12T05:18:37;6.70;90.10
70269;DHT22;58514;48.398;-4.274;2023-02-12T05:21:03;6.70;90.20
70269;DHT22;58514;48.398;-4.274;2023-02-12T05:23:30;6.60;90.20
70269;DHT22;58514;48.398;-4.274;2023-02-12T05:25:59;6.60;90.10
70269;DHT22;58514;48.398;-4.274;2023-02-12T05:28:26;6.60;90.30
70269;DHT22;58514;48.398;-4.274;2023-02-12T05:30:51;6.60;90.30
70269;DHT22;58514;48.398;-4.274;2023-02-12T05:33:17;6.60;90.20
70269;DHT22;58514;48.398;-4.274;2023-02-12T05:35:42;6.50;90.10
70269;DHT22;58514;48.398;-4.274;2023-02-12T05:38:08;6.50;90.10
70269;DHT22;58514;48.398;-4.274;2023-02-12T05:40:33;6.40;90.10
70269;DHT22;58514;48.398;-4.274;2023-02-12T05:43:00;6.40;90.10
70269;DHT22;58514;48.398;-4.274;2023-02-12T05:45:26;6.30;90.10
70269;DHT22;58514;48.398;-4.274;2023-02-12T05:47:56;6.30;90.20
70269;DHT22;58514;48.398;-4.274;2023-02-12T05:50:21;6.30;90.20
70269;DHT22;58514;48.398;-4.274;2023-02-12T05:52:47;6.20;90.10
70269;DHT22;58514;48.398;-4.274;2023-02-12T05:55:13;6.20;90.30
70269;DHT22;58514;48.398;-4.274;2023-02-12T05:57:38;6.20;90.40
70269;DHT22;58514;48.398;-4.274;2023-02-12T06:00:05;6.10;90.40
70269;DHT22;58514;48.398;-4.274;2023-02-12T06:02:33;6.10;90.40
70269;DHT22;58514;48.398;-4.274;2023-02-12T06:04:58;6.10;90.40
70269;DHT22;58514;48.398;-4.274;2023-02-12T06:07:24;6.10;90.50
70269;DHT22;58514;48.398;-4.274;2023-02-12T06:09:50;6.10;90.60
70269;DHT22;58514;48.398;-4.274;2023-02-12T06:12:15;6.10;90.60
70269;DHT22;58514;48.398;-4.274;2023-02-12T06:14:41;6.00;90.60
70269;DHT22;58514;48.398;-4.274;2023-02-12T06:17:06;6.00;90.40
70269;DHT22;58514;48.398;-4.274;2023-02-12T06:19:32;6.00;90.60
70269;DHT22;58514;48.398;-4.274;2023-02-12T06:21:58;6.00;90.60
70269;DHT22;58514;48.398;-4.274;2023-02-12T06:24:23;6.00;90.60
70269;DHT22;58514;48.398;-4.274;2023-02-12T06:26:50;6.00;90.70
70269;DHT22;58514;48.398;-4.274;2023-02-12T06:29:16;6.00;90.80
70269;DHT22;58514;48.398;-4.274;2023-02-12T06:31:41;6.00;90.80
70269;DHT22;58514;48.398;-4.274;2023-02-12T06:34:08;6.00;90.80
70269;DHT22;58514;48.398;-4.274;2023-02-12T06:36:39;6.00;90.80
70269;DHT22;58514;48.398;-4.274;2023-02-12T06:39:05;6.00;90.90
70269;DHT22;58514;48.398;-4.274;2023-02-12T06:41:30;6.00;90.90
70269;DHT22;58514;48.398;-4.274;2023-02-12T06:43:56;6.00;90.80
70269;DHT22;58514;48.398;-4.274;2023-02-12T06:46:21;6.00;90.80
70269;DHT22;58514;48.398;-4.274;2023-02-12T06:48:47;6.00;90.70
70269;DHT22;58514;48.398;-4.274;2023-02-12T06:51:14;6.00;90.60
70269;DHT22;58514;48.398;-4.274;2023-02-12T06:53:40;6.00;90.60
70269;DHT22;58514;48.398;-4.274;2023-02-12T06:56:06;6.00;90.70
70269;DHT22;58514;48.398;-4.274;2023-02-12T06:58:35;6.10;90.70
70269;DHT22;58514;48.398;-4.274;2023-02-12T07:03:40;6.10;90.60
70269;DHT22;58514;48.398;-4.274;2023-02-12T07:06:05;6.10;90.60
70269;DHT22;58514;48.398;-4.274;2023-02-12T07:08:31;6.20;90.80
70269;DHT22;58514;48.398;-4.274;2023-02-12T07:10:56;6.20;90.90
70269;DHT22;58514;48.398;-4.274;2023-02-12T07:13:22;6.20;90.90
70269;DHT22;58514;48.398;-4.274;2023-02-12T07:15:48;6.20;91.00
70269;DHT22;58514;48.398;-4.274;2023-02-12T07:18:14;6.30;90.90
70269;DHT22;58514;48.398;-4.274;2023-02-12T07:20:39;6.30;90.80
70269;DHT22;58514;48.398;-4.274;2023-02-12T07:23:05;6.30;90.70
70269;DHT22;58514;48.398;-4.274;2023-02-12T07:25:30;6.30;90.70
70269;DHT22;58514;48.398;-4.274;2023-02-12T07:27:56;6.30;90.70
70269;DHT22;58514;48.398;-4.274;2023-02-12T07:30:21;6.40;90.80
70269;DHT22;58514;48.398;-4.274;2023-02-12T07:32:47;6.40;90.80
70269;DHT22;58514;48.398;-4.274;2023-02-12T07:35:13;6.40;90.70
70269;DHT22;58514;48.398;-4.274;2023-02-12T07:37:38;6.40;90.60
70269;DHT22;58514;48.398;-4.274;2023-02-12T07:40:04;6.40;90.60
70269;DHT22;58514;48.398;-4.274;2023-02-12T07:42:30;6.40;90.70
70269;DHT22;58514;48.398;-4.274;2023-02-12T07:44:56;6.40;90.80
70269;DHT22;58514;48.398;-4.274;2023-02-12T07:47:21;6.40;90.60
70269;DHT22;58514;48.398;-4.274;2023-02-12T07:49:47;6.40;90.50
70269;DHT22;58514;48.398;-4.274;2023-02-12T07:52:12;6.40;90.60
70269;DHT22;58514;48.398;-4.274;2023-02-12T07:54:38;6.40;90.60
70269;DHT22;58514;48.398;-4.274;2023-02-12T07:57:03;6.40;90.60
70269;DHT22;58514;48.398;-4.274;2023-02-12T07:59:29;6.40;90.60
70269;DHT22;58514;48.398;-4.274;2023-02-12T08:01:54;6.50;90.70
70269;DHT22;58514;48.398;-4.274;2023-02-12T08:04:21;6.50;90.60
70269;DHT22;58514;48.398;-4.274;2023-02-12T08:06:48;6.50;90.70
70269;DHT22;58514;48.398;-4.274;2023-02-12T08:09:15;6.50;90.60
70269;DHT22;58514;48.398;-4.274;2023-02-12T08:11:41;6.50;90.60
70269;DHT22;58514;48.398;-4.274;2023-02-12T08:14:07;6.60;90.70
70269;DHT22;58514;48.398;-4.274;2023-02-12T08:16:36;6.60;90.60
70269;DHT22;58514;48.398;-4.274;2023-02-12T08:19:02;6.60;90.50
70269;DHT22;58514;48.398;-4.274;2023-02-12T08:21:28;6.60;90.60
70269;DHT22;58514;48.398;-4.274;2023-02-12T08:23:54;6.60;90.50
70269;DHT22;58514;48.398;-4.274;2023-02-12T08:26:21;6.60;90.60
70269;DHT22;58514;48.398;-4.274;2023-02-12T08:28:51;6.60;90.70
70269;DHT22;58514;48.398;-4.274;2023-02-12T08:31:21;6.70;90.70
70269;DHT22;58514;48.398;-4.274;2023-02-12T08:33:47;6.70;90.70
70269;DHT22;58514;48.398;-4.274;2023-02-12T08:36:14;6.80;90.80
70269;DHT22;58514;48.398;-4.274;2023-02-12T08:38:40;6.80;90.80
70269;DHT22;58514;48.398;-4.274;2023-02-12T08:41:17;6.80;90.80
70269;DHT22;58514;48.398;-4.274;2023-02-12T08:43:43;6.80;90.70
70269;DHT22;58514;48.398;-4.274;2023-02-12T08:46:16;6.90;90.80
70269;DHT22;58514;48.398;-4.274;2023-02-12T08:48:42;6.90;90.80
70269;DHT22;58514;48.398;-4.274;2023-02-12T08:51:09;7.00;91.30
70269;DHT22;58514;48.398;-4.274;2023-02-12T08:53:35;7.30;93.30
70269;DHT22;58514;48.398;-4.274;2023-02-12T08:56:01;7.60;94.60
70269;DHT22;58514;48.398;-4.274;2023-02-12T08:58:27;8.00;95.10
70269;DHT22;58514;48.398;-4.274;2023-02-12T09:00:52;8.40;94.10
70269;DHT22;58514;48.398;-4.274;2023-02-12T09:03:18;8.70;92.60
70269;DHT22;58514;48.398;-4.274;2023-02-12T09:05:43;8.90;92.40
70269;DHT22;58514;48.398;-4.274;2023-02-12T09:08:09;9.10;91.90
70269;DHT22;58514;48.398;-4.274;2023-02-12T09:10:38;9.30;92.60
70269;DHT22;58514;48.398;-4.274;2023-02-12T09:13:04;9.50;91.80
70269;DHT22;58514;48.398;-4.274;2023-02-12T09:15:30;9.60;89.90
70269;DHT22;58514;48.398;-4.274;2023-02-12T09:17:56;9.70;90.10
70269;DHT22;58514;48.398;-4.274;2023-02-12T09:20:22;9.80;89.80
70269;DHT22;58514;48.398;-4.274;2023-02-12T09:22:47;9.90;89.40
70269;DHT22;58514;48.398;-4.274;2023-02-12T09:25:13;10.00;91.10
70269;DHT22;58514;48.398;-4.274;2023-02-12T09:27:38;10.20;91.50
70269;DHT22;58514;48.398;-4.274;2023-02-12T09:30:04;10.40;91.90
70269;DHT22;58514;48.398;-4.274;2023-02-12T09:32:30;10.60;92.30
70269;DHT22;58514;48.398;-4.274;2023-02-12T09:34:55;10.90;91.90
70269;DHT22;58514;48.398;-4.274;2023-02-12T09:37:21;11.00;91.70
70269;DHT22;58514;48.398;-4.274;2023-02-12T09:39:46;11.10;90.30
70269;DHT22;58514;48.398;-4.274;2023-02-12T09:52:21;11.50;84.50
70269;DHT22;58514;48.398;-4.274;2023-02-12T09:54:48;11.50;84.90
70269;DHT22;58514;48.398;-4.274;2023-02-12T09:57:18;11.50;83.40
70269;DHT22;58514;48.398;-4.274;2023-02-12T09:59:50;11.60;83.20
70269;DHT22;58514;48.398;-4.274;2023-02-12T10:02:17;11.70;84.10
70269;DHT22;58514;48.398;-4.274;2023-02-12T10:04:43;11.80;84.80
70269;DHT22;58514;48.398;-4.274;2023-02-12T10:09:42;12.10;86.60
70269;DHT22;58514;48.398;-4.274;2023-02-12T10:12:12;12.30;86.90
70269;DHT22;58514;48.398;-4.274;2023-02-12T10:14:44;12.60;91.00
70269;DHT22;58514;48.398;-4.274;2023-02-12T10:27:53;14.10;91.70
70269;DHT22;58514;48.398;-4.274;2023-02-12T10:30:26;14.40;91.50
70269;DHT22;58514;48.398;-4.274;2023-02-12T10:32:58;14.60;89.50
70269;DHT22;58514;48.398;-4.274;2023-02-12T10:35:24;14.90;90.30
70269;DHT22;58514;48.398;-4.274;2023-02-12T10:40:21;15.30;86.10
70269;DHT22;58514;48.398;-4.274;2023-02-12T10:42:48;15.50;83.70
70269;DHT22;58514;48.398;-4.274;2023-02-12T10:45:16;15.70;89.60
70269;DHT22;58514;48.398;-4.274;2023-02-12T10:47:43;16.00;90.60
70269;DHT22;58514;48.398;-4.274;2023-02-12T10:50:32;16.40;90.70
70269;DHT22;58514;48.398;-4.274;2023-02-12T10:52:58;16.80;91.60
70269;DHT22;58514;48.398;-4.274;2023-02-12T10:55:31;17.20;89.80
70269;DHT22;58514;48.398;-4.274;2023-02-12T10:57:57;17.30;89.20
70269;DHT22;58514;48.398;-4.274;2023-02-12T11:05:28;18.00;85.80
70269;DHT22;58514;48.398;-4.274;2023-02-12T11:07:54;18.20;83.00
70269;DHT22;58514;48.398;-4.274;2023-02-12T11:10:40;18.40;77.10
70269;DHT22;58514;48.398;-4.274;2023-02-12T11:13:16;18.60;78.50
70269;DHT22;58514;48.398;-4.274;2023-02-12T11:15:46;18.80;75.20
70269;DHT22;58514;48.398;-4.274;2023-02-12T11:18:28;19.20;76.20
70269;DHT22;58514;48.398;-4.274;2023-02-12T11:23:24;19.70;67.50
70269;DHT22;58514;48.398;-4.274;2023-02-12T11:25:54;19.90;68.40
70269;DHT22;58514;48.398;-4.274;2023-02-12T11:28:19;20.10;67.80
70269;DHT22;58514;48.398;-4.274;2023-02-12T11:33:15;20.20;65.10
70269;DHT22;58514;48.398;-4.274;2023-02-12T11:38:27;20.00;58.90
70269;DHT22;58514;48.398;-4.274;2023-02-12T11:40:55;19.80;61.30
70269;DHT22;58514;48.398;-4.274;2023-02-12T11:43:21;19.60;60.20
70269;DHT22;58514;48.398;-4.274;2023-02-12T11:45:49;19.50;59.50
70269;DHT22;58514;48.398;-4.274;2023-02-12T11:48:21;19.40;60.60
70269;DHT22;58514;48.398;-4.274;2023-02-12T11:50:48;19.30;60.90
70269;DHT22;58514;48.398;-4.274;2023-02-12T11:53:19;19.30;61.50
70269;DHT22;58514;48.398;-4.274;2023-02-12T11:55:51;19.40;62.60
70269;DHT22;58514;48.398;-4.274;2023-02-12T11:58:20;19.50;63.20
70269;DHT22;58514;48.398;-4.274;2023-02-12T12:05:50;19.90;63.40
70269;DHT22;58514;48.398;-4.274;2023-02-12T12:08:30;20.10;63.40
70269;DHT22;58514;48.398;-4.274;2023-02-12T12:11:03;20.30;64.40
70269;DHT22;58514;48.398;-4.274;2023-02-12T12:13:34;20.50;65.50
70269;DHT22;58514;48.398;-4.274;2023-02-12T12:16:12;20.90;63.40
70269;DHT22;58514;48.398;-4.274;2023-02-12T12:18:58;21.10;64.40
70269;DHT22;58514;48.398;-4.274;2023-02-12T12:24:23;21.30;59.80
70269;DHT22;58514;48.398;-4.274;2023-02-12T12:27:34;21.60;62.00
70269;DHT22;58514;48.398;-4.274;2023-02-12T12:29:59;21.90;62.40
70269;DHT22;58514;48.398;-4.274;2023-02-12T12:32:31;22.20;58.80
70269;DHT22;58514;48.398;-4.274;2023-02-12T12:34:59;22.40;56.30
70269;DHT22;58514;48.398;-4.274;2023-02-12T12:37:39;22.60;56.20
70269;DHT22;58514;48.398;-4.274;2023-02-12T12:42:56;23.00;54.00
70269;DHT22;58514;48.398;-4.274;2023-02-12T12:53:06;22.40;51.60
70269;DHT22;58514;48.398;-4.274;2023-02-12T13:05:53;20.50;51.30
70269;DHT22;58514;48.398;-4.274;2023-02-12T13:08:27;20.20;52.70
70269;DHT22;58514;48.398;-4.274;2023-02-12T13:10:56;20.00;53.50
70269;DHT22;58514;48.398;-4.274;2023-02-12T13:13:30;19.80;54.60
70269;DHT22;58514;48.398;-4.274;2023-02-12T13:31:01;19.90;52.30
70269;DHT22;58514;48.398;-4.274;2023-02-12T13:33:32;19.70;52.00
70269;DHT22;58514;48.398;-4.274;2023-02-12T13:36:00;19.60;53.30
70269;DHT22;58514;48.398;-4.274;2023-02-12T13:41:21;19.20;52.80
70269;DHT22;58514;48.398;-4.274;2023-02-12T13:46:30;18.90;53.10
70269;DHT22;58514;48.398;-4.274;2023-02-12T13:56:48;18.90;54.10
70269;DHT22;58514;48.398;-4.274;2023-02-12T14:01:54;18.50;53.70
70269;DHT22;58514;48.398;-4.274;2023-02-12T14:04:21;18.30;53.10
70269;DHT22;58514;48.398;-4.274;2023-02-12T14:09:28;18.00;53.80
70269;DHT22;58514;48.398;-4.274;2023-02-12T14:11:56;17.70;53.10
70269;DHT22;58514;48.398;-4.274;2023-02-12T14:14:33;17.50;53.70
70269;DHT22;58514;48.398;-4.274;2023-02-12T14:24:50;16.90;54.90
70269;DHT22;58514;48.398;-4.274;2023-02-12T14:27:26;16.90;54.80
70269;DHT22;58514;48.398;-4.274;2023-02-12T14:31:18;16.90;55.30
70269;DHT22;58514;48.398;-4.274;2023-02-12T14:37:58;16.60;54.50
70269;DHT22;58514;48.398;-4.274;2023-02-12T14:42:58;16.40;54.40
70269;DHT22;58514;48.398;-4.274;2023-02-12T14:45:28;16.30;54.00
70269;DHT22;58514;48.398;-4.274;2023-02-12T14:47:54;16.30;54.50
70269;DHT22;58514;48.398;-4.274;2023-02-12T14:50:30;16.30;54.90
70269;DHT22;58514;48.398;-4.274;2023-02-12T14:53:04;16.30;55.40
70269;DHT22;58514;48.398;-4.274;2023-02-12T14:55:31;16.40;55.40
70269;DHT22;58514;48.398;-4.274;2023-02-12T14:58:05;16.40;55.20
70269;DHT22;58514;48.398;-4.274;2023-02-12T15:00:40;16.40;55.30
70269;DHT22;58514;48.398;-4.274;2023-02-12T15:05:46;16.40;55.20
70269;DHT22;58514;48.398;-4.274;2023-02-12T15:08:27;16.50;55.80
70269;DHT22;58514;48.398;-4.274;2023-02-12T15:11:13;16.60;54.60
70269;DHT22;58514;48.398;-4.274;2023-02-12T15:16:52;16.60;55.30
70269;DHT22;58514;48.398;-4.274;2023-02-12T15:19:06;16.60;55.50
70269;DHT22;58514;48.398;-4.274;2023-02-12T15:21:36;16.70;56.00
70269;DHT22;58514;48.398;-4.274;2023-02-12T15:26:32;16.90;55.10
70269;DHT22;58514;48.398;-4.274;2023-02-12T15:28:58;16.90;55.30
70269;DHT22;58514;48.398;-4.274;2023-02-12T15:31:27;16.90;55.40
70269;DHT22;58514;48.398;-4.274;2023-02-12T15:33:54;16.90;55.00
70269;DHT22;58514;48.398;-4.274;2023-02-12T15:36:22;16.90;54.40
70269;DHT22;58514;48.398;-4.274;2023-02-12T15:38:50;16.80;54.30
70269;DHT22;58514;48.398;-4.274;2023-02-12T15:41:27;16.80;55.10
70269;DHT22;58514;48.398;-4.274;2023-02-12T15:43:53;16.80;54.90
70269;DHT22;58514;48.398;-4.274;2023-02-12T15:46:19;16.80;55.00
70269;DHT22;58514;48.398;-4.274;2023-02-12T15:48:45;16.80;54.60
70269;DHT22;58514;48.398;-4.274;2023-02-12T15:51:27;16.70;54.40
70269;DHT22;58514;48.398;-4.274;2023-02-12T15:53:54;16.70;54.60
70269;DHT22;58514;48.398;-4.274;2023-02-12T15:56:21;16.60;54.50
70269;DHT22;58514;48.398;-4.274;2023-02-12T15:58:48;16.60;54.60
70269;DHT22;58514;48.398;-4.274;2023-02-12T16:01:18;16.50;54.50
70269;DHT22;58514;48.398;-4.274;2023-02-12T16:03:47;16.50;54.70
70269;DHT22;58514;48.398;-4.274;2023-02-12T16:06:13;16.40;54.70
70269;DHT22;58514;48.398;-4.274;2023-02-12T16:08:42;16.40;54.70
70269;DHT22;58514;48.398;-4.274;2023-02-12T16:11:08;16.30;54.50
70269;DHT22;58514;48.398;-4.274;2023-02-12T16:13:42;16.20;54.40
70269;DHT22;58514;48.398;-4.274;2023-02-12T16:18:34;16.10;54.10
70269;DHT22;58514;48.398;-4.274;2023-02-12T16:21:01;16.00;54.20
70269;DHT22;58514;48.398;-4.274;2023-02-12T16:23:26;15.90;54.20
70269;DHT22;58514;48.398;-4.274;2023-02-12T16:25:53;15.90;54.10
70269;DHT22;58514;48.398;-4.274;2023-02-12T16:28:22;15.70;54.10
70269;DHT22;58514;48.398;-4.274;2023-02-12T16:30:48;15.60;54.30
70269;DHT22;58514;48.398;-4.274;2023-02-12T16:33:35;15.60;54.30
70269;DHT22;58514;48.398;-4.274;2023-02-12T16:38:49;15.40;54.40
70269;DHT22;58514;48.398;-4.274;2023-02-12T16:46:25;15.10;54.60
70269;DHT22;58514;48.398;-4.274;2023-02-12T16:48:51;15.00;54.60
70269;DHT22;58514;48.398;-4.274;2023-02-12T16:51:28;14.90;54.60
70269;DHT22;58514;48.398;-4.274;2023-02-12T16:53:54;14.90;54.70
70269;DHT22;58514;48.398;-4.274;2023-02-12T16:56:22;14.80;54.70
70269;DHT22;58514;48.398;-4.274;2023-02-12T16:58:49;14.70;54.70
70269;DHT22;58514;48.398;-4.274;2023-02-12T17:01:20;14.60;54.60
70269;DHT22;58514;48.398;-4.274;2023-02-12T17:03:46;14.60;54.70
70269;DHT22;58514;48.398;-4.274;2023-02-12T17:06:15;14.40;54.70
70269;DHT22;58514;48.398;-4.274;2023-02-12T17:08:41;14.40;54.70
70269;DHT22;58514;48.398;-4.274;2023-02-12T17:11:06;14.30;54.70
70269;DHT22;58514;48.398;-4.274;2023-02-12T17:13:32;14.20;54.70
70269;DHT22;58514;48.398;-4.274;2023-02-12T17:15:58;14.10;54.80
70269;DHT22;58514;48.398;-4.274;2023-02-12T17:18:27;14.00;54.80
70269;DHT22;58514;48.398;-4.274;2023-02-12T17:20:58;13.90;55.00
70269;DHT22;58514;48.398;-4.274;2023-02-12T17:23:24;13.90;55.20
70269;DHT22;58514;48.398;-4.274;2023-02-12T17:25:50;13.80;55.40
70269;DHT22;58514;48.398;-4.274;2023-02-12T17:28:16;13.70;55.30
70269;DHT22;58514;48.398;-4.274;2023-02-12T17:30:42;13.70;55.40
70269;DHT22;58514;48.398;-4.274;2023-02-12T17:33:07;13.60;55.30
70269;DHT22;58514;48.398;-4.274;2023-02-12T17:35:33;13.60;55.50
70269;DHT22;58514;48.398;-4.274;2023-02-12T17:37:59;13.50;55.50
70269;DHT22;58514;48.398;-4.274;2023-02-12T17:40:24;13.50;55.90
70269;DHT22;58514;48.398;-4.274;2023-02-12T17:42:50;13.40;55.90
70269;DHT22;58514;48.398;-4.274;2023-02-12T17:45:15;13.30;56.00
70269;DHT22;58514;48.398;-4.274;2023-02-12T17:47:41;13.20;56.00
70269;DHT22;58514;48.398;-4.274;2023-02-12T17:50:08;13.10;56.10
70269;DHT22;58514;48.398;-4.274;2023-02-12T17:52:34;13.00;56.20
70269;DHT22;58514;48.398;-4.274;2023-02-12T17:55:00;12.90;56.10
70269;DHT22;58514;48.398;-4.274;2023-02-12T17:57:26;12.90;56.40
70269;DHT22;58514;48.398;-4.274;2023-02-12T17:59:52;12.80;56.70
70269;DHT22;58514;48.398;-4.274;2023-02-12T18:02:17;12.80;57.00
70269;DHT22;58514;48.398;-4.274;2023-02-12T18:04:43;12.70;57.00
70269;DHT22;58514;48.398;-4.274;2023-02-12T18:07:08;12.60;57.00
70269;DHT22;58514;48.398;-4.274;2023-02-12T18:09:35;12.50;57.00
70269;DHT22;58514;48.398;-4.274;2023-02-12T18:12:01;12.40;56.80
70269;DHT22;58514;48.398;-4.274;2023-02-12T18:14:26;12.40;57.00
70269;DHT22;58514;48.398;-4.274;2023-02-12T18:16:52;12.30;57.10
70269;DHT22;58514;48.398;-4.274;2023-02-12T18:19:17;12.30;57.30
70269;DHT22;58514;48.398;-4.274;2023-02-12T18:21:43;12.20;57.20
70269;DHT22;58514;48.398;-4.274;2023-02-12T18:24:09;12.20;57.30
70269;DHT22;58514;48.398;-4.274;2023-02-12T18:26:34;12.10;57.40
70269;DHT22;58514;48.398;-4.274;2023-02-12T18:29:00;12.10;57.70
70269;DHT22;58514;48.398;-4.274;2023-02-12T18:31:26;12.00;57.70
70269;DHT22;58514;48.398;-4.274;2023-02-12T18:33:52;12.00;57.60